Time;durP1;ratioP1;P1;durP2;ratioP2;P2;SDS_P1;SDS_P2;PMS_P1;PMS_P2;Temp;Humidity;BMP_temperature;BMP_pressure;BME280_temperature;BME280_humidity;BME280_pressure;Samples;Min_cycle;Max_cycle;Signal;HPM_P1;HPM_P2
2023/03/30 00:01:19;;;;;;;5.95;2.67;;;12.80;99.90;;;;;;5062802;28;20028;-83
2023/03/30 00:03:46;;;;;;;6.28;2.70;;;12.80;99.90;;;;;;5064805;28;20111;-84
2023/03/30 00:06:14;;;;;;;4.55;2.78;;;12.90;99.90;;;;;;5078875;28;20025;-84
2023/03/30 00:08:39;;;;;;;9.55;2.78;;;12.90;99.90;;;;;;5064711;28;20405;-83
2023/03/30 00:11:15;;;;;;;5.13;3.17;;;12.90;99.90;;;;;;5063359;28;20029;-83
2023/03/30 00:13:42;;;;;;;4.53;2.47;;;12.90;99.90;;;;;;5063781;28;20032;-83
2023/03/30 00:16:11;;;;;;;5.95;2.55;;;13.00;99.90;;;;;;5064157;28;20024;-82
2023/03/30 00:18:38;;;;;;;8.20;3.05;;;13.00;99.90;;;;;;5064483;28;20036;-83
2023/03/30 00:21:04;;;;;;;6.90;3.05;;;13.00;99.90;;;;;;5057592;28;20020;-82
2023/03/30 00:23:30;;;;;;;6.70;2.72;;;13.10;99.90;;;;;;5079911;28;20031;-83
2023/03/30 00:25:56;;;;;;;3.85;2.22;;;13.10;99.90;;;;;;5063648;28;20032;-83
2023/03/30 00:28:22;;;;;;;3.53;2.30;;;12.90;99.90;;;;;;5063645;28;20035;-84
2023/03/30 00:30:48;;;;;;;4.95;2.92;;;12.80;99.90;;;;;;5063912;28;20064;-83
2023/03/30 00:33:14;;;;;;;5.38;2.67;;;12.70;99.90;;;;;;5064771;28;20047;-85
2023/03/30 00:35:40;;;;;;;4.60;2.50;;;12.70;99.90;;;;;;5064900;28;20146;-84
2023/03/30 00:38:06;;;;;;;4.05;2.25;;;12.60;99.90;;;;;;5062801;28;20032;-84
2023/03/30 00:40:33;;;;;;;3.75;2.17;;;12.70;99.90;;;;;;5056404;28;20441;-83
2023/03/30 00:43:06;;;;;;;6.78;2.15;;;12.70;99.90;;;;;;5080931;28;20639;-84
2023/03/30 00:45:36;;;;;;;4.10;2.05;;;12.80;99.90;;;;;;5062077;28;20032;-84
2023/03/30 00:48:11;;;;;;;3.78;1.98;;;12.90;99.90;;;;;;5058900;28;20032;-84
2023/03/30 00:50:38;;;;;;;4.43;2.10;;;12.90;99.90;;;;;;5060362;28;20051;-84
2023/03/30 00:53:15;;;;;;;4.95;2.28;;;13.00;99.90;;;;;;5062575;28;20040;-84
2023/03/30 00:55:41;;;;;;;5.03;1.95;;;13.10;99.90;;;;;;5064195;28;20028;-83
2023/03/30 00:58:08;;;;;;;4.40;2.17;;;13.10;99.90;;;;;;5063394;28;20029;-84
2023/03/30 01:00:37;;;;;;;4.65;1.88;;;13.20;99.90;;;;;;5061195;28;20039;-83
2023/03/30 01:03:14;;;;;;;4.32;1.90;;;13.20;99.90;;;;;;5060838;28;20060;-84
2023/03/30 01:05:43;;;;;;;6.28;1.77;;;13.20;99.90;;;;;;5061180;28;20035;-85
2023/03/30 01:08:12;;;;;;;6.18;2.05;;;13.30;99.90;;;;;;5058351;28;20024;-86
2023/03/30 01:10:38;;;;;;;3.45;1.55;;;13.30;99.90;;;;;;5055498;28;20021;-87
2023/03/30 01:13:04;;;;;;;4.00;1.77;;;13.30;99.90;;;;;;5057142;28;20086;-85
2023/03/30 01:15:34;;;;;;;3.83;1.63;;;13.30;99.90;;;;;;5065420;28;20029;-85
2023/03/30 01:18:10;;;;;;;3.38;1.73;;;13.30;99.90;;;;;;5064661;28;20465;-85
2023/03/30 01:20:37;;;;;;;4.57;1.42;;;13.30;99.90;;;;;;5063592;28;20063;-85
2023/03/30 01:23:14;;;;;;;3.80;1.55;;;13.20;99.90;;;;;;5063785;28;20021;-85
2023/03/30 01:25:56;;;;;;;2.25;1.20;;;13.30;99.90;;;;;;5079515;28;20033;-85
2023/03/30 01:28:33;;;;;;;4.47;1.50;;;13.20;99.90;;;;;;5064768;28;20020;-84
2023/03/30 01:31:27;;;;;;;3.13;1.50;;;13.20;99.90;;;;;;5079621;28;22367;-84
2023/03/30 01:34:08;;;;;;;2.80;1.30;;;13.10;99.90;;;;;;5065370;28;20097;-85
2023/03/30 01:37:04;;;;;;;5.07;1.90;;;13.10;99.90;;;;;;5062446;28;20048;-86
2023/03/30 01:39:43;;;;;;;3.55;1.80;;;13.00;99.90;;;;;;5060706;28;20093;-85
2023/03/30 01:42:39;;;;;;;3.15;1.40;;;13.00;99.90;;;;;;5063561;28;20017;-84
2023/03/30 01:45:24;;;;;;;6.78;1.70;;;13.00;99.90;;;;;;5062118;28;20028;-85
2023/03/30 01:47:55;;;;;;;3.10;1.50;;;13.00;99.90;;;;;;5062907;28;20055;-84
2023/03/30 01:50:26;;;;;;;3.17;1.65;;;13.00;99.90;;;;;;5062167;28;20089;-84
2023/03/30 01:52:55;;;;;;;3.55;1.70;;;13.00;99.90;;;;;;5058327;28;20037;-86
2023/03/30 01:55:39;;;;;;;2.97;1.40;;;13.00;99.90;;;;;;5060445;28;20024;-84
2023/03/30 01:58:12;;;;;;;2.92;1.52;;;13.00;99.90;;;;;;5061888;28;20032;-85
2023/03/30 02:00:40;;;;;;;3.60;1.85;;;13.00;99.90;;;;;;5062280;28;20029;-85
2023/03/30 02:03:11;;;;;;;4.22;1.60;;;13.00;99.90;;;;;;5078054;28;20110;-85
2023/03/30 02:05:38;;;;;;;4.97;1.80;;;13.00;99.90;;;;;;5063787;28;20035;-84
2023/03/30 02:08:27;;;;;;;5.03;1.80;;;13.00;99.90;;;;;;5063682;28;20032;-85
2023/03/30 02:10:56;;;;;;;3.72;1.60;;;12.90;99.90;;;;;;5062339;28;20024;-86
2023/03/30 02:13:22;;;;;;;3.92;1.60;;;12.90;99.90;;;;;;5064164;28;20474;-85
2023/03/30 02:15:52;;;;;;;2.85;1.42;;;12.90;99.90;;;;;;5062984;28;20063;-84
2023/03/30 02:18:19;;;;;;;4.32;1.92;;;12.90;99.90;;;;;;5077055;28;20034;-86
2023/03/30 02:20:45;;;;;;;3.38;1.60;;;12.90;99.90;;;;;;5065221;28;20028;-86
2023/03/30 02:23:12;;;;;;;4.57;1.30;;;12.90;99.90;;;;;;5064450;28;20016;-85
2023/03/30 02:25:38;;;;;;;2.92;1.42;;;12.80;99.90;;;;;;5064889;28;20024;-85
2023/03/30 02:28:06;;;;;;;4.85;1.50;;;12.70;99.90;;;;;;5063849;28;20024;-84
2023/03/30 02:30:34;;;;;;;3.22;1.85;;;12.70;99.90;;;;;;5060048;28;20028;-85
2023/03/30 02:32:59;;;;;;;3.83;1.65;;;12.60;99.90;;;;;;5062991;28;20089;-84
2023/03/30 02:35:44;;;;;;;3.35;1.80;;;12.60;99.90;;;;;;5057440;28;20025;-84
2023/03/30 02:38:22;;;;;;;5.15;1.70;;;12.60;99.90;;;;;;5057470;28;20040;-85
2023/03/30 02:40:50;;;;;;;3.00;1.50;;;12.50;99.90;;;;;;5060163;28;20680;-83
2023/03/30 02:43:16;;;;;;;3.38;1.52;;;12.50;99.90;;;;;;5061963;28;20051;-84
2023/03/30 02:45:48;;;;;;;3.03;1.30;;;12.60;99.90;;;;;;5062917;28;20024;-83
2023/03/30 02:48:41;;;;;;;3.50;1.27;;;12.80;99.90;;;;;;5060631;28;20069;-84
2023/03/30 02:51:18;;;;;;;3.70;1.35;;;12.90;99.90;;;;;;5058796;28;20036;-84
2023/03/30 02:53:52;;;;;;;1.90;1.02;;;13.00;99.90;;;;;;5062238;28;20389;-84
2023/03/30 02:56:28;;;;;;;2.72;1.30;;;13.00;99.90;;;;;;5077520;28;20028;-84
2023/03/30 02:59:09;;;;;;;2.33;1.48;;;13.10;99.90;;;;;;5062562;28;20056;-84
2023/03/30 03:01:41;;;;;;;2.88;1.58;;;13.20;99.90;;;;;;5059927;28;20389;-84
2023/03/30 03:04:09;;;;;;;2.50;1.00;;;13.20;99.90;;;;;;5061506;28;20378;-84
2023/03/30 03:06:36;;;;;;;2.78;0.95;;;13.30;99.90;;;;;;5061668;28;20363;-84
2023/03/30 03:09:03;;;;;;;1.88;0.75;;;13.30;99.90;;;;;;5056652;28;20389;-85
2023/03/30 03:11:29;;;;;;;1.98;0.85;;;13.40;99.90;;;;;;5060542;28;20427;-84
2023/03/30 03:13:55;;;;;;;3.47;1.08;;;13.40;99.90;;;;;;5062164;28;20837;-84
2023/03/30 03:16:21;;;;;;;2.33;0.98;;;13.40;99.90;;;;;;5054906;28;20030;-84
2023/03/30 03:18:48;;;;;;;4.38;1.30;;;13.50;99.90;;;;;;5054781;28;20067;-84
2023/03/30 03:21:14;;;;;;;1.83;0.73;;;13.50;99.90;;;;;;5062395;28;20024;-83
2023/03/30 03:23:41;;;;;;;1.77;0.82;;;13.50;99.90;;;;;;5062770;28;20074;-85
2023/03/30 03:26:07;;;;;;;1.58;0.70;;;13.40;99.90;;;;;;5064548;28;20175;-84
2023/03/30 03:28:33;;;;;;;2.45;0.80;;;13.40;99.90;;;;;;5078953;28;20108;-84
2023/03/30 03:30:59;;;;;;;3.95;1.02;;;13.40;99.90;;;;;;5063774;28;20040;-83
2023/03/30 03:33:26;;;;;;;2.05;0.85;;;13.40;99.90;;;;;;5057851;28;20078;-84
2023/03/30 03:35:58;;;;;;;2.10;0.80;;;13.30;99.90;;;;;;5064986;28;20024;-84
2023/03/30 03:38:24;;;;;;;1.90;0.80;;;13.30;99.90;;;;;;5063688;28;20029;-83
2023/03/30 03:40:51;;;;;;;2.03;0.90;;;13.20;99.90;;;;;;5065208;28;20032;-83
2023/03/30 03:43:17;;;;;;;3.55;1.20;;;13.10;99.90;;;;;;5065435;28;20078;-83
2023/03/30 03:45:47;;;;;;;2.70;1.20;;;13.00;99.90;;;;;;5062972;28;20592;-85
2023/03/30 03:48:14;;;;;;;1.63;0.73;;;13.00;99.90;;;;;;5079766;28;20765;-85
2023/03/30 03:50:40;;;;;;;1.63;0.90;;;12.90;99.90;;;;;;5064667;28;20102;-84
2023/03/30 03:53:06;;;;;;;3.85;1.50;;;12.90;99.90;;;;;;5064992;28;20394;-84
2023/03/30 03:55:34;;;;;;;2.58;1.10;;;12.80;99.90;;;;;;5064730;28;20024;-85
2023/03/30 03:58:00;;;;;;;6.13;1.17;;;12.80;99.90;;;;;;5065007;28;20584;-85
2023/03/30 04:00:26;;;;;;;2.30;1.00;;;12.90;99.90;;;;;;5079208;28;20063;-84
2023/03/30 04:02:51;;;;;;;3.00;1.40;;;12.90;99.90;;;;;;5057717;28;20409;-85
2023/03/30 04:05:17;;;;;;;4.55;1.00;;;13.00;99.90;;;;;;5057428;28;20052;-85
2023/03/30 04:07:45;;;;;;;1.60;0.85;;;13.10;99.90;;;;;;5064820;28;20044;-85
2023/03/30 04:10:11;;;;;;;1.35;0.73;;;13.10;99.90;;;;;;5064105;28;20017;-85
2023/03/30 04:12:37;;;;;;;2.70;0.95;;;13.20;99.90;;;;;;5062771;28;20044;-86
2023/03/30 04:15:04;;;;;;;3.70;1.10;;;13.30;99.90;;;;;;5065245;28;20564;-86
2023/03/30 04:17:32;;;;;;;1.95;0.70;;;13.30;99.90;;;;;;5064230;28;20028;-85
2023/03/30 04:20:04;;;;;;;2.72;0.75;;;13.30;99.90;;;;;;5056442;28;22252;-85
2023/03/30 04:22:32;;;;;;;2.92;0.93;;;13.30;99.90;;;;;;5064817;28;20028;-84
2023/03/30 04:24:58;;;;;;;2.63;0.80;;;13.30;99.90;;;;;;5058398;28;20528;-84
2023/03/30 04:27:27;;;;;;;1.73;0.70;;;13.30;99.90;;;;;;5079143;28;20157;-85
2023/03/30 04:29:56;;;;;;;2.20;0.80;;;13.30;99.90;;;;;;5062741;28;20167;-84
2023/03/30 04:32:23;;;;;;;2.30;1.08;;;13.40;99.90;;;;;;5064072;28;20097;-84
2023/03/30 04:34:53;;;;;;;2.58;0.80;;;13.40;99.90;;;;;;5063130;28;20052;-85
2023/03/30 04:37:22;;;;;;;2.88;0.85;;;13.30;99.90;;;;;;5062409;28;20029;-85
2023/03/30 04:39:49;;;;;;;3.65;0.90;;;13.30;99.90;;;;;;5062713;28;20028;-84
2023/03/30 04:42:18;;;;;;;3.63;1.27;;;13.30;99.90;;;;;;5062338;28;20558;-85
2023/03/30 04:44:44;;;;;;;3.83;0.90;;;13.30;99.90;;;;;;5060466;28;20604;-85
2023/03/30 04:47:10;;;;;;;1.55;0.70;;;13.30;99.90;;;;;;5060422;28;20024;-84
2023/03/30 04:49:35;;;;;;;2.55;0.90;;;13.30;99.90;;;;;;5059068;28;20595;-84
2023/03/30 04:52:01;;;;;;;2.35;0.70;;;13.20;99.90;;;;;;5057860;28;20032;-85
2023/03/30 04:54:26;;;;;;;3.38;1.20;;;13.20;99.90;;;;;;5053983;28;20429;-85
2023/03/30 04:56:52;;;;;;;4.85;0.90;;;13.20;99.90;;;;;;5061974;28;20036;-84
2023/03/30 04:59:17;;;;;;;5.03;1.10;;;13.10;99.90;;;;;;5061017;28;20034;-83
2023/03/30 05:01:44;;;;;;;2.58;1.08;;;12.90;99.90;;;;;;5060126;28;20116;-83
2023/03/30 05:04:09;;;;;;;2.88;0.90;;;12.70;99.90;;;;;;5059796;28;20071;-84
2023/03/30 05:06:35;;;;;;;3.67;1.27;;;12.40;99.90;;;;;;5059340;28;22212;-83
2023/03/30 05:09:00;;;;;;;4.82;1.33;;;12.30;99.90;;;;;;5054169;28;20096;-83
2023/03/30 05:11:26;;;;;;;5.80;1.65;;;12.10;99.90;;;;;;5060268;28;20024;-84
2023/03/30 05:13:53;;;;;;;6.35;1.30;;;11.90;99.90;;;;;;5061138;28;20482;-84
2023/03/30 05:16:20;;;;;;;5.22;1.67;;;11.90;99.90;;;;;;5076058;28;20505;-84
2023/03/30 05:18:45;;;;;;;6.10;1.48;;;11.80;99.90;;;;;;5054596;28;20553;-83
2023/03/30 05:21:11;;;;;;;2.63;1.20;;;11.80;99.90;;;;;;5060230;28;20023;-83
2023/03/30 05:23:38;;;;;;;4.20;1.55;;;11.70;99.90;;;;;;5059091;28;20147;-84
2023/03/30 05:26:06;;;;;;;3.92;1.55;;;11.70;99.90;;;;;;5060826;28;20020;-84
2023/03/30 05:28:32;;;;;;;3.30;1.50;;;11.70;99.90;;;;;;5060930;28;20410;-83
2023/03/30 05:30:57;;;;;;;3.08;1.67;;;11.60;99.90;;;;;;5062255;28;20171;-84
2023/03/30 05:33:23;;;;;;;5.10;2.00;;;11.70;99.90;;;;;;5060514;28;20433;-84
2023/03/30 05:35:49;;;;;;;4.78;2.60;;;11.70;99.90;;;;;;5059290;28;20029;-83
2023/03/30 05:38:16;;;;;;;4.43;2.00;;;11.60;99.90;;;;;;5060794;28;20599;-84
2023/03/30 05:40:41;;;;;;;4.35;1.70;;;11.60;99.90;;;;;;5059955;28;20058;-83
2023/03/30 05:43:07;;;;;;;6.70;2.33;;;11.60;99.90;;;;;;5060774;28;20025;-83
2023/03/30 05:45:33;;;;;;;4.43;2.28;;;11.60;99.90;;;;;;5053230;28;20474;-83
2023/03/30 05:47:59;;;;;;;4.60;2.40;;;11.60;99.90;;;;;;5059948;28;20040;-83
2023/03/30 05:50:25;;;;;;;6.30;2.22;;;11.60;99.90;;;;;;5060918;28;20020;-81
2023/03/30 05:52:57;;;;;;;5.20;2.53;;;11.60;99.90;;;;;;5057739;28;20032;-82
2023/03/30 05:55:23;;;;;;;6.15;1.90;;;11.60;99.90;;;;;;5051781;28;20028;-83
2023/03/30 05:57:51;;;;;;;6.35;2.40;;;11.60;99.90;;;;;;5053781;28;20023;-83
2023/03/30 06:00:20;;;;;;;6.80;2.15;;;11.60;99.90;;;;;;5061863;28;20033;-82
2023/03/30 06:02:46;;;;;;;5.63;2.20;;;11.60;99.90;;;;;;5062187;28;20516;-81
2023/03/30 06:05:12;;;;;;;6.63;2.17;;;11.70;99.90;;;;;;5062166;28;20036;-83
2023/03/30 06:07:38;;;;;;;4.43;2.78;;;11.70;99.90;;;;;;5059472;28;20040;-84
2023/03/30 06:10:05;;;;;;;7.57;2.67;;;11.70;99.90;;;;;;5061985;28;20032;-83
2023/03/30 06:12:31;;;;;;;6.35;2.50;;;11.80;99.90;;;;;;5060169;28;20045;-83
2023/03/30 06:14:57;;;;;;;6.82;2.53;;;11.90;99.90;;;;;;5061012;28;20020;-83
2023/03/30 06:17:23;;;;;;;5.35;2.72;;;11.80;99.90;;;;;;5075371;28;20024;-83
2023/03/30 06:19:48;;;;;;;5.30;2.22;;;11.90;99.90;;;;;;5053802;28;20082;-85
2023/03/30 06:22:14;;;;;;;7.95;2.42;;;12.00;99.90;;;;;;5060070;28;20105;-84
2023/03/30 06:24:40;;;;;;;5.47;2.25;;;12.00;99.90;;;;;;5061187;28;20032;-84
2023/03/30 06:27:06;;;;;;;6.47;2.13;;;12.10;99.90;;;;;;5061872;28;20035;-83
2023/03/30 06:29:31;;;;;;;7.65;2.15;;;12.10;99.90;;;;;;5057080;28;20536;-83
2023/03/30 06:31:57;;;;;;;7.22;2.40;;;12.10;99.90;;;;;;5054889;28;20135;-84
2023/03/30 06:34:23;;;;;;;7.85;1.90;;;12.20;99.90;;;;;;5056413;28;20409;-82
2023/03/30 06:36:49;;;;;;;6.63;2.53;;;12.20;99.90;;;;;;5060455;28;20033;-82
2023/03/30 06:39:16;;;;;;;5.72;1.80;;;12.20;99.90;;;;;;5061443;28;20953;-82
2023/03/30 06:41:43;;;;;;;5.55;2.00;;;12.30;99.90;;;;;;5061010;28;20025;-83
2023/03/30 06:44:09;;;;;;;6.85;2.10;;;12.30;99.90;;;;;;5053661;28;20036;-84
2023/03/30 06:46:35;;;;;;;5.57;2.30;;;12.30;99.90;;;;;;5053656;28;20359;-83
2023/03/30 06:49:01;;;;;;;6.63;2.33;;;12.30;99.90;;;;;;5059043;28;20027;-83
2023/03/30 06:51:27;;;;;;;10.55;3.13;;;12.20;99.90;;;;;;5053999;28;20035;-83
2023/03/30 06:53:52;;;;;;;7.35;2.80;;;12.00;99.90;;;;;;5052832;28;20028;-83
2023/03/30 06:56:18;;;;;;;7.40;2.45;;;11.90;99.90;;;;;;5060171;28;20032;-83
2023/03/30 06:58:44;;;;;;;8.52;2.90;;;11.90;99.90;;;;;;5057357;28;20024;-84
2023/03/30 07:01:14;;;;;;;7.93;2.85;;;11.80;99.90;;;;;;5060203;28;21328;-82
2023/03/30 07:03:40;;;;;;;7.18;2.03;;;11.80;99.90;;;;;;5060603;28;20037;-84
2023/03/30 07:06:07;;;;;;;6.05;1.92;;;11.80;99.90;;;;;;5055365;28;20020;-84
2023/03/30 07:08:34;;;;;;;9.55;2.88;;;11.80;99.90;;;;;;5056403;28;20024;-83
2023/03/30 07:11:00;;;;;;;10.43;3.15;;;11.80;99.90;;;;;;5054578;28;20032;-82
2023/03/30 07:13:26;;;;;;;8.20;2.47;;;11.80;99.90;;;;;;5074479;28;20076;-84
2023/03/30 07:15:53;;;;;;;7.18;2.30;;;11.90;99.90;;;;;;5058846;28;20093;-82
2023/03/30 07:18:19;;;;;;;7.70;2.80;;;12.00;99.90;;;;;;5056632;28;20075;-83
2023/03/30 07:20:45;;;;;;;7.82;2.70;;;12.10;99.90;;;;;;5053824;28;20046;-83
2023/03/30 07:23:11;;;;;;;6.55;2.60;;;12.10;99.90;;;;;;5074944;28;20107;-83
2023/03/30 07:25:38;;;;;;;8.05;3.10;;;12.10;99.90;;;;;;5050083;28;20596;-84
2023/03/30 07:28:05;;;;;;;10.73;2.92;;;12.10;99.90;;;;;;5074606;28;20217;-83
2023/03/30 07:30:31;;;;;;;9.52;3.10;;;12.10;99.90;;;;;;5057419;28;20394;-84
2023/03/30 07:32:57;;;;;;;6.88;2.40;;;12.20;99.90;;;;;;5060007;28;20066;-84
2023/03/30 07:35:23;;;;;;;9.90;2.60;;;12.40;99.90;;;;;;5059267;28;20033;-84
2023/03/30 07:37:49;;;;;;;11.15;3.08;;;12.50;99.90;;;;;;5056483;28;20064;-82
2023/03/30 07:40:16;;;;;;;10.02;2.75;;;12.60;99.90;;;;;;5058217;28;20115;-84
2023/03/30 07:42:42;;;;;;;13.77;2.92;;;12.70;99.90;;;;;;5073403;28;20039;-83
2023/03/30 07:45:08;;;;;;;10.25;2.28;;;12.90;99.90;;;;;;5053264;28;20025;-84
2023/03/30 07:47:34;;;;;;;9.30;2.33;;;13.00;99.90;;;;;;5059540;28;20025;-84
2023/03/30 07:50:00;;;;;;;12.95;3.15;;;13.10;99.90;;;;;;5073753;28;20987;-85
2023/03/30 07:52:26;;;;;;;13.15;2.70;;;13.10;99.90;;;;;;5058250;28;20048;-83
2023/03/30 07:54:53;;;;;;;9.32;2.47;;;13.00;99.90;;;;;;5058307;28;20115;-85
2023/03/30 07:57:19;;;;;;;9.85;2.40;;;13.00;99.90;;;;;;5057789;28;20030;-86
2023/03/30 07:59:45;;;;;;;11.48;2.25;;;13.00;99.90;;;;;;5053744;28;20052;-85
2023/03/30 08:02:13;;;;;;;12.07;2.92;;;13.00;99.90;;;;;;5059369;28;20059;-85
2023/03/30 08:04:40;;;;;;;12.52;2.65;;;13.00;99.90;;;;;;5052460;28;20067;-86
2023/03/30 08:07:06;;;;;;;14.27;3.35;;;13.00;99.90;;;;;;5057885;28;20432;-85
2023/03/30 08:09:32;;;;;;;14.98;2.83;;;13.00;99.90;;;;;;5062000;28;20029;-85
2023/03/30 08:11:58;;;;;;;16.15;2.72;;;13.00;99.90;;;;;;5054606;28;20032;-85
2023/03/30 08:14:26;;;;;;;13.32;2.67;;;13.00;99.90;;;;;;5061623;28;20036;-85
2023/03/30 08:16:52;;;;;;;14.75;3.38;;;13.10;99.90;;;;;;5062496;28;20052;-85
2023/03/30 08:19:19;;;;;;;13.15;2.60;;;13.10;99.90;;;;;;5062743;28;20017;-83
2023/03/30 08:21:45;;;;;;;13.15;2.42;;;13.20;99.90;;;;;;5061350;28;20112;-84
2023/03/30 08:24:10;;;;;;;14.52;2.50;;;13.20;99.90;;;;;;5061508;28;20021;-84
2023/03/30 08:26:37;;;;;;;11.75;2.45;;;13.20;99.90;;;;;;5053537;28;20415;-83
2023/03/30 08:29:03;;;;;;;13.10;2.65;;;13.30;99.90;;;;;;5061488;28;20032;-83
2023/03/30 08:31:31;;;;;;;15.63;2.78;;;13.40;99.90;;;;;;5060645;28;20032;-83
2023/03/30 08:33:57;;;;;;;13.20;2.83;;;13.50;99.90;;;;;;5061050;28;20107;-83
2023/03/30 08:36:23;;;;;;;11.02;2.45;;;13.60;99.90;;;;;;5060849;28;20055;-83
2023/03/30 08:38:49;;;;;;;10.80;2.70;;;13.60;99.90;;;;;;5060731;28;20024;-83
2023/03/30 08:41:53;;;;;;;12.98;3.85;;;13.70;99.90;;;;;;5060462;28;20659;-85
2023/03/30 08:44:38;;;;;;;9.25;2.50;;;13.80;99.90;;;;;;5054803;28;20024;-83
2023/03/30 08:47:30;;;;;;;14.73;3.22;;;13.90;99.90;;;;;;5062578;28;20028;-83
2023/03/30 08:50:07;;;;;;;16.20;3.17;;;13.80;99.90;;;;;;5059989;28;20032;-83
2023/03/30 08:52:33;;;;;;;14.30;3.22;;;13.80;99.90;;;;;;5061578;28;20936;-84
2023/03/30 08:55:00;;;;;;;19.35;3.15;;;13.80;99.90;;;;;;5076983;28;20506;-84
2023/03/30 08:57:46;;;;;;;16.83;3.85;;;13.70;99.90;;;;;;5061267;28;20037;-84
2023/03/30 09:00:34;;;;;;;13.65;2.92;;;13.70;99.90;;;;;;5057704;28;20024;-83
2023/03/30 09:03:25;;;;;;;15.95;3.28;;;13.70;99.90;;;;;;5078246;28;20082;-84
2023/03/30 09:05:57;;;;;;;14.88;3.03;;;13.70;99.90;;;;;;5076473;28;20097;-82
2023/03/30 09:08:27;;;;;;;13.35;2.90;;;13.70;99.90;;;;;;5064450;28;20161;-85
2023/03/30 09:10:59;;;;;;;12.85;3.03;;;13.70;99.90;;;;;;5061786;28;20082;-84
2023/03/30 09:13:30;;;;;;;11.18;2.78;;;13.70;99.90;;;;;;5060076;28;20040;-84
2023/03/30 09:16:08;;;;;;;12.45;2.75;;;13.80;99.90;;;;;;5058307;28;20166;-85
2023/03/30 09:18:36;;;;;;;10.48;3.00;;;13.80;99.90;;;;;;5057901;28;20029;-83
2023/03/30 09:21:04;;;;;;;12.23;3.17;;;13.60;99.90;;;;;;5076259;28;20017;-84
2023/03/30 09:23:31;;;;;;;13.70;3.22;;;13.40;99.90;;;;;;5060556;28;20024;-83
2023/03/30 09:26:27;;;;;;;14.48;3.45;;;13.10;99.90;;;;;;5054439;28;20470;-84
2023/03/30 09:29:12;;;;;;;13.63;2.88;;;12.90;99.90;;;;;;5061308;28;20036;-85
2023/03/30 09:31:40;;;;;;;10.27;2.72;;;12.90;99.90;;;;;;5055318;28;20028;-83
2023/03/30 09:34:30;;;;;;;11.40;3.22;;;13.00;99.90;;;;;;5054912;28;20028;-82
2023/03/30 09:37:10;;;;;;;9.48;3.35;;;13.20;99.90;;;;;;5061930;28;20036;-85
2023/03/30 09:39:37;;;;;;;11.95;3.38;;;13.50;99.90;;;;;;5055117;28;20143;-84
2023/03/30 09:42:20;;;;;;;14.70;3.95;;;13.70;99.90;;;;;;5061249;28;20047;-84
2023/03/30 09:44:51;;;;;;;14.73;3.38;;;13.80;99.90;;;;;;5061785;28;20032;-84
2023/03/30 09:47:25;;;;;;;11.57;3.50;;;13.90;99.90;;;;;;5059318;28;20055;-85
2023/03/30 09:50:02;;;;;;;12.82;3.28;;;13.80;99.90;;;;;;5062404;28;20034;-83
2023/03/30 09:52:31;;;;;;;9.02;2.28;;;13.80;99.90;;;;;;5054373;28;20029;-84
2023/03/30 09:55:15;;;;;;;9.50;2.65;;;13.80;99.90;;;;;;5077029;28;20074;-85
2023/03/30 09:57:41;;;;;;;13.32;2.83;;;14.20;99.90;;;;;;5076157;28;20085;-85
2023/03/30 10:00:22;;;;;;;17.80;3.88;;;14.30;99.90;;;;;;5060516;28;20016;-85
2023/03/30 10:03:01;;;;;;;18.85;3.92;;;14.40;99.90;;;;;;5059716;28;20028;-83
2023/03/30 10:05:29;;;;;;;14.05;3.60;;;14.50;99.90;;;;;;5063485;28;20020;-83
2023/03/30 10:08:00;;;;;;;15.55;3.53;;;15.00;99.90;;;;;;5053709;28;20070;-84
2023/03/30 10:10:25;;;;;;;17.73;4.40;;;15.70;99.90;;;;;;5053295;28;20039;-84
2023/03/30 10:12:56;;;;;;;16.25;3.67;;;16.30;99.90;;;;;;5075915;28;20044;-83
2023/03/30 10:15:29;;;;;;;13.50;3.22;;;16.50;99.90;;;;;;5058796;28;20021;-86
2023/03/30 10:17:55;;;;;;;13.77;3.05;;;16.40;99.90;;;;;;5061161;28;20456;-84
2023/03/30 10:20:34;;;;;;;14.15;3.35;;;16.10;99.90;;;;;;5059159;28;20017;-84
2023/03/30 10:23:03;;;;;;;15.30;3.60;;;15.70;99.90;;;;;;5060033;28;20017;-83
2023/03/30 10:25:32;;;;;;;15.93;3.78;;;15.40;99.90;;;;;;5058172;28;20020;-82
2023/03/30 10:28:03;;;;;;;13.68;3.63;;;15.20;99.90;;;;;;5059441;28;20028;-83
2023/03/30 10:30:29;;;;;;;15.70;3.42;;;15.00;99.90;;;;;;5059578;28;20028;-85
2023/03/30 10:32:58;;;;;;;13.55;3.33;;;14.80;99.90;;;;;;5054695;28;20047;-84
2023/03/30 10:35:35;;;;;;;19.02;4.32;;;14.70;99.90;;;;;;5058057;28;20040;-83
2023/03/30 10:38:02;;;;;;;17.08;3.90;;;14.80;99.90;;;;;;5059823;28;20103;-82
2023/03/30 10:40:37;;;;;;;14.85;3.28;;;14.80;99.90;;;;;;5059229;28;20027;-83
2023/03/30 10:43:07;;;;;;;13.90;3.80;;;14.80;99.90;;;;;;5058280;28;20089;-84
2023/03/30 10:45:43;;;;;;;16.73;3.70;;;14.90;99.90;;;;;;5057881;28;20035;-84
2023/03/30 10:48:36;;;;;;;13.85;3.60;;;15.10;99.90;;;;;;5058460;28;20119;-84
2023/03/30 10:51:20;;;;;;;14.27;3.42;;;16.10;99.90;;;;;;5060224;28;20128;-84
2023/03/30 10:54:25;;;;;;;17.95;4.18;;;16.40;99.90;;;;;;5060501;28;20044;-82
2023/03/30 10:56:56;;;;;;;12.93;3.90;;;16.10;99.90;;;;;;5037167;28;20036;-83
2023/03/30 10:59:42;;;;;;;18.10;4.43;;;16.10;99.90;;;;;;5037027;28;20112;-84
2023/03/30 11:02:20;;;;;;;14.10;3.50;;;15.90;99.90;;;;;;5039197;28;20044;-84
2023/03/30 11:04:57;;;;;;;17.48;4.20;;;15.60;99.90;;;;;;5060172;28;20502;-84
2023/03/30 11:07:28;;;;;;;15.30;4.07;;;15.30;99.90;;;;;;5059075;28;20069;-85
2023/03/30 11:10:01;;;;;;;16.63;4.43;;;15.10;99.90;;;;;;5060153;28;20654;-83
2023/03/30 11:12:38;;;;;;;19.45;4.82;;;14.90;99.90;;;;;;5057154;28;20042;-83
2023/03/30 11:15:14;;;;;;;13.93;3.70;;;14.60;99.90;;;;;;5058173;28;20501;-83
2023/03/30 11:17:59;;;;;;;21.23;5.30;;;14.50;99.90;;;;;;5053244;28;20024;-83
2023/03/30 11:20:32;;;;;;;18.92;5.10;;;14.50;99.90;;;;;;5059400;28;20100;-84
2023/03/30 11:23:10;;;;;;;13.82;4.47;;;14.80;99.90;;;;;;5055823;28;20041;-84
2023/03/30 11:25:53;;;;;;;17.50;5.07;;;15.20;99.90;;;;;;5057969;28;20466;-83
2023/03/30 11:28:31;;;;;;;17.05;3.72;;;15.70;99.90;;;;;;5058045;28;20047;-82
2023/03/30 11:31:07;;;;;;;13.93;4.03;;;16.50;99.90;;;;;;5059500;28;20029;-83
2023/03/30 11:33:46;;;;;;;17.13;3.60;;;17.30;99.90;;;;;;5059616;28;20041;-85
2023/03/30 11:36:26;;;;;;;12.07;3.65;;;18.30;99.90;;;;;;5059317;28;20101;-83
2023/03/30 11:39:05;;;;;;;12.52;3.53;;;19.20;99.90;;;;;;5048428;28;20492;-85
2023/03/30 11:42:13;;;;;;;13.15;3.08;;;19.70;99.90;;;;;;5056579;28;20093;-84
2023/03/30 11:44:39;;;;;;;13.43;3.17;;;19.60;99.90;;;;;;5062593;28;20025;-85
2023/03/30 11:47:31;;;;;;;14.00;3.38;;;19.40;99.90;;;;;;5064385;28;20596;-83
2023/03/30 11:50:24;;;;;;;12.35;2.78;;;19.30;99.90;;;;;;5061452;28;20055;-84
2023/03/30 11:53:08;;;;;;;11.85;3.28;;;19.30;99.90;;;;;;5061912;28;20032;-83
2023/03/30 11:55:42;;;;;;;12.52;2.60;;;19.70;99.90;;;;;;5061840;28;20102;-84
2023/03/30 11:58:25;;;;;;;12.25;2.90;;;19.70;99.90;;;;;;5055164;28;20505;-83
2023/03/30 12:01:15;;;;;;;14.35;2.80;;;19.20;99.90;;;;;;5063009;28;20415;-83
2023/03/30 12:03:45;;;;;;;10.07;3.05;;;19.10;99.90;;;;;;5060517;28;20052;-84
2023/03/30 12:06:19;;;;;;;15.40;3.85;;;19.10;99.90;;;;;;5063361;28;20020;-84
2023/03/30 12:09:09;;;;;;;13.38;2.83;;;18.80;99.90;;;;;;5061177;28;20533;-85
2023/03/30 12:11:46;;;;;;;12.95;3.58;;;18.10;99.90;;;;;;5062498;28;20177;-83
2023/03/30 12:14:44;;;;;;;9.77;2.33;;;17.60;99.90;;;;;;5077851;28;20032;-83
2023/03/30 12:17:10;;;;;;;13.00;2.97;;;17.30;99.90;;;;;;5078830;28;20032;-84
2023/03/30 12:19:45;;;;;;;10.27;2.58;;;17.10;99.90;;;;;;5061316;28;20107;-85
2023/03/30 12:22:24;;;;;;;12.18;2.88;;;17.20;99.90;;;;;;5061829;28;20051;-84
2023/03/30 12:25:13;;;;;;;13.18;2.97;;;17.10;99.90;;;;;;5063580;28;20052;-84
2023/03/30 12:27:57;;;;;;;8.55;2.60;;;16.80;99.90;;;;;;5061502;28;20643;-85
2023/03/30 12:30:29;;;;;;;13.27;2.95;;;16.50;99.90;;;;;;5059468;28;20517;-83
2023/03/30 12:33:10;;;;;;;12.98;3.08;;;16.30;99.90;;;;;;5061576;28;20028;-84
2023/03/30 12:35:48;;;;;;;14.20;3.00;;;16.10;99.90;;;;;;5055568;28;20078;-83
2023/03/30 12:38:24;;;;;;;12.35;2.95;;;16.00;99.90;;;;;;5062888;28;20037;-82
2023/03/30 12:41:13;;;;;;;10.55;2.80;;;16.30;99.90;;;;;;5062142;28;20017;-82
2023/03/30 12:43:59;;;;;;;11.32;2.55;;;16.60;99.90;;;;;;5059606;28;20020;-87
2023/03/30 12:46:48;;;;;;;11.35;2.38;;;16.90;99.90;;;;;;5063123;28;20025;-86
2023/03/30 12:50:08;;;;;;;12.52;2.88;;;17.10;99.90;;;;;;5065016;28;20044;-93
2023/03/30 12:53:08;;;;;;;12.32;2.67;;;17.00;99.90;;;;;;5066978;28;20482;-91
2023/03/30 12:55:42;;;;;;;15.90;3.47;;;17.60;99.90;;;;;;5064629;28;20036;-85
2023/03/30 12:58:26;;;;;;;16.45;3.35;;;17.70;99.90;;;;;;5059555;28;20025;-82
2023/03/30 13:01:17;;;;;;;12.10;2.58;;;18.10;99.90;;;;;;5059297;28;20538;-83
2023/03/30 13:03:48;;;;;;;15.77;3.42;;;19.00;99.90;;;;;;5058732;28;20498;-82
2023/03/30 13:06:35;;;;;;;11.90;3.05;;;18.80;99.90;;;;;;5058510;28;20043;-82